sensor_id;sensor_type;location;lat;lon;timestamp;pressure;altitude;pressure_sealevel;temperature;humidity
69848;BME280;57143;55.940;37.496;2023-04-08T00:02:09;98877.81;;;2.77;100.00
69848;BME280;57143;55.940;37.496;2023-04-08T00:04:36;98882.50;;;2.75;100.00
69848;BME280;57143;55.940;37.496;2023-04-08T00:07:03;98882.44;;;2.68;100.00
69848;BME280;57143;55.940;37.496;2023-04-08T00:09:30;98888.19;;;2.65;100.00
69848;BME280;57143;55.940;37.496;2023-04-08T00:11:57;98887.16;;;2.66;100.00
69848;BME280;57143;55.940;37.496;2023-04-08T00:14:27;98882.47;;;2.54;100.00
69848;BME280;57143;55.940;37.496;2023-04-08T00:16:54;98896.97;;;2.45;100.00
69848;BME280;57143;55.940;37.496;2023-04-08T00:19:21;98896.31;;;2.43;100.00
69848;BME280;57143;55.940;37.496;2023-04-08T00:21:49;98898.34;;;2.41;100.00
69848;BME280;57143;55.940;37.496;2023-04-08T00:24:18;98883.13;;;2.26;100.00
69848;BME280;57143;55.940;37.496;2023-04-08T00:26:45;98891.69;;;2.36;100.00
69848;BME280;57143;55.940;37.496;2023-04-08T00:29:13;98896.69;;;2.40;100.00
69848;BME280;57143;55.940;37.496;2023-04-08T00:31:41;98891.69;;;2.36;100.00
69848;BME280;57143;55.940;37.496;2023-04-08T00:34:08;98900.28;;;2.32;100.00
69848;BME280;57143;55.940;37.496;2023-04-08T00:36:36;98881.75;;;2.16;100.00
69848;BME280;57143;55.940;37.496;2023-04-08T00:39:04;98898.63;;;2.16;100.00
69848;BME280;57143;55.940;37.496;2023-04-08T00:41:32;98871.25;;;2.00;100.00
69848;BME280;57143;55.940;37.496;2023-04-08T00:43:59;98900.00;;;2.12;100.00
69848;BME280;57143;55.940;37.496;2023-04-08T00:46:27;98909.41;;;2.08;100.00
69848;BME280;57143;55.940;37.496;2023-04-08T00:48:55;98884.69;;;1.92;100.00
69848;BME280;57143;55.940;37.496;2023-04-08T00:51:23;98906.81;;;2.00;100.00
69848;BME280;57143;55.940;37.496;2023-04-08T00:53:50;98912.00;;;2.02;100.00
69848;BME280;57143;55.940;37.496;2023-04-08T00:56:18;98914.00;;;2.00;100.00
69848;BME280;57143;55.940;37.496;2023-04-08T00:58:46;98909.38;;;1.94;100.00
69848;BME280;57143;55.940;37.496;2023-04-08T01:01:20;98909.66;;;1.84;100.00
69848;BME280;57143;55.940;37.496;2023-04-08T01:04:00;98917.28;;;1.87;100.00
69848;BME280;57143;55.940;37.496;2023-04-08T01:06:37;98916.66;;;1.85;100.00
69848;BME280;57143;55.940;37.496;2023-04-08T01:09:09;98923.00;;;1.84;100.00
69848;BME280;57143;55.940;37.496;2023-04-08T01:11:42;98918.47;;;1.85;100.00
69848;BME280;57143;55.940;37.496;2023-04-08T01:14:11;98921.00;;;1.86;100.00
69848;BME280;57143;55.940;37.496;2023-04-08T01:16:41;98912.78;;;1.88;100.00
69848;BME280;57143;55.940;37.496;2023-04-08T01:19:17;98930.38;;;1.82;100.00
69848;BME280;57143;55.940;37.496;2023-04-08T01:21:51;98932.84;;;1.84;100.00
69848;BME280;57143;55.940;37.496;2023-04-08T01:24:24;98946.47;;;1.74;100.00
69848;BME280;57143;55.940;37.496;2023-04-08T01:26:54;98944.88;;;1.65;100.00
69848;BME280;57143;55.940;37.496;2023-04-08T01:29:23;98967.72;;;1.68;100.00
69848;BME280;57143;55.940;37.496;2023-04-08T01:31:52;98969.09;;;1.64;100.00
69848;BME280;57143;55.940;37.496;2023-04-08T01:34:21;98971.63;;;1.57;100.00
69848;BME280;57143;55.940;37.496;2023-04-08T01:36:50;98964.47;;;1.58;100.00
69848;BME280;57143;55.940;37.496;2023-04-08T01:39:18;98953.84;;;1.50;100.00
69848;BME280;57143;55.940;37.496;2023-04-08T01:41:47;98968.72;;;1.44;100.00
69848;BME280;57143;55.940;37.496;2023-04-08T01:44:16;98997.34;;;1.58;100.00
69848;BME280;57143;55.940;37.496;2023-04-08T01:46:44;98997.16;;;1.60;100.00
69848;BME280;57143;55.940;37.496;2023-04-08T01:49:15;98980.38;;;1.51;100.00
69848;BME280;57143;55.940;37.496;2023-04-08T01:51:43;98983.69;;;1.53;100.00
69848;BME280;57143;55.940;37.496;2023-04-08T01:54:12;98980.97;;;1.61;100.00
69848;BME280;57143;55.940;37.496;2023-04-08T01:56:40;98982.63;;;1.62;100.00
69848;BME280;57143;55.940;37.496;2023-04-08T01:59:12;98983.63;;;1.61;100.00
69848;BME280;57143;55.940;37.496;2023-04-08T02:01:43;98973.34;;;1.50;100.00
69848;BME280;57143;55.940;37.496;2023-04-08T02:04:11;98985.16;;;1.56;100.00
69848;BME280;57143;55.940;37.496;2023-04-08T02:06:39;98987.84;;;1.56;100.00
69848;BME280;57143;55.940;37.496;2023-04-08T02:09:06;98986.38;;;1.53;100.00
69848;BME280;57143;55.940;37.496;2023-04-08T02:11:33;98985.72;;;1.51;100.00
69848;BME280;57143;55.940;37.496;2023-04-08T02:14:00;98980.75;;;1.40;100.00
69848;BME280;57143;55.940;37.496;2023-04-08T02:16:31;98984.09;;;1.42;100.00
69848;BME280;57143;55.940;37.496;2023-04-08T02:19:06;98978.56;;;1.44;100.00
69848;BME280;57143;55.940;37.496;2023-04-08T02:21:39;98984.16;;;1.34;100.00
69848;BME280;57143;55.940;37.496;2023-04-08T02:24:12;98987.50;;;1.36;100.00
69848;BME280;57143;55.940;37.496;2023-04-08T02:26:41;98992.16;;;1.34;100.00
69848;BME280;57143;55.940;37.496;2023-04-08T02:29:11;98989.19;;;1.29;100.00
69848;BME280;57143;55.940;37.496;2023-04-08T02:31:40;99002.66;;;1.36;100.00
69848;BME280;57143;55.940;37.496;2023-04-08T02:34:10;99001.34;;;1.32;100.00
69848;BME280;57143;55.940;37.496;2023-04-08T02:36:37;99004.38;;;1.29;100.00
69848;BME280;57143;55.940;37.496;2023-04-08T02:39:05;99005.41;;;1.28;100.00
69848;BME280;57143;55.940;37.496;2023-04-08T02:41:33;99014.22;;;1.28;100.00
69848;BME280;57143;55.940;37.496;2023-04-08T02:44:00;99008.53;;;1.31;100.00
69848;BME280;57143;55.940;37.496;2023-04-08T02:46:27;99007.88;;;1.29;100.00
69848;BME280;57143;55.940;37.496;2023-04-08T02:48:54;99011.03;;;1.33;100.00
69848;BME280;57143;55.940;37.496;2023-04-08T02:51:23;99012.31;;;1.37;100.00
69848;BME280;57143;55.940;37.496;2023-04-08T02:53:50;99015.78;;;1.68;100.00
69848;BME280;57143;55.940;37.496;2023-04-08T02:56:18;99003.91;;;1.93;100.00
69848;BME280;57143;55.940;37.496;2023-04-08T02:58:46;99012.16;;;2.06;100.00
69848;BME280;57143;55.940;37.496;2023-04-08T03:01:13;98986.00;;;1.79;100.00
69848;BME280;57143;55.940;37.496;2023-04-08T03:03:40;99005.16;;;1.82;100.00
69848;BME280;57143;55.940;37.496;2023-04-08T03:06:08;98998.03;;;1.75;100.00
69848;BME280;57143;55.940;37.496;2023-04-08T03:08:36;99002.44;;;1.68;100.00
69848;BME280;57143;55.940;37.496;2023-04-08T03:11:03;98993.63;;;1.67;100.00
69848;BME280;57143;55.940;37.496;2023-04-08T03:13:30;98988.41;;;1.88;100.00
69848;BME280;57143;55.940;37.496;2023-04-08T03:15:58;98980.50;;;2.47;100.00
69848;BME280;57143;55.940;37.496;2023-04-08T03:18:25;98971.47;;;2.48;100.00
69848;BME280;57143;55.940;37.496;2023-04-08T03:20:53;98968.97;;;2.61;100.00
69848;BME280;57143;55.940;37.496;2023-04-08T03:23:20;98956.25;;;2.63;100.00
69848;BME280;57143;55.940;37.496;2023-04-08T03:25:48;98953.19;;;2.80;100.00
69848;BME280;57143;55.940;37.496;2023-04-08T03:28:15;98937.22;;;3.43;100.00
69848;BME280;57143;55.940;37.496;2023-04-08T03:30:42;98930.47;;;4.17;100.00
69848;BME280;57143;55.940;37.496;2023-04-08T03:33:10;98918.75;;;4.59;100.00
69848;BME280;57143;55.940;37.496;2023-04-08T03:35:37;98904.97;;;5.22;100.00
69848;BME280;57143;55.940;37.496;2023-04-08T03:38:04;98905.59;;;5.31;100.00
69848;BME280;57143;55.940;37.496;2023-04-08T03:40:31;98888.28;;;5.79;100.00
69848;BME280;57143;55.940;37.496;2023-04-08T03:42:59;98897.19;;;5.93;100.00
69848;BME280;57143;55.940;37.496;2023-04-08T03:45:27;98901.94;;;6.30;100.00
69848;BME280;57143;55.940;37.496;2023-04-08T03:47:54;98877.47;;;6.38;100.00
69848;BME280;57143;55.940;37.496;2023-04-08T03:50:21;98899.63;;;6.46;100.00
69848;BME280;57143;55.940;37.496;2023-04-08T03:52:48;98897.31;;;7.07;100.00
69848;BME280;57143;55.940;37.496;2023-04-08T03:55:15;98898.63;;;7.36;100.00
69848;BME280;57143;55.940;37.496;2023-04-08T03:57:43;98906.66;;;7.42;100.00
69848;BME280;57143;55.940;37.496;2023-04-08T04:00:13;98909.56;;;7.72;100.00
69848;BME280;57143;55.940;37.496;2023-04-08T04:02:40;98914.84;;;7.60;100.00
69848;BME280;57143;55.940;37.496;2023-04-08T04:05:08;98904.88;;;7.92;100.00
69848;BME280;57143;55.940;37.496;2023-04-08T04:07:35;98896.63;;;8.72;100.00
69848;BME280;57143;55.940;37.496;2023-04-08T04:10:02;98902.75;;;8.97;100.00
69848;BME280;57143;55.940;37.496;2023-04-08T04:12:29;98886.16;;;9.12;100.00
69848;BME280;57143;55.940;37.496;2023-04-08T04:14:57;98884.47;;;8.63;100.00
69848;BME280;57143;55.940;37.496;2023-04-08T04:17:25;98825.41;;;9.14;100.00
69848;BME280;57143;55.940;37.496;2023-04-08T04:19:52;98893.78;;;9.33;100.00
69848;BME280;57143;55.940;37.496;2023-04-08T04:22:19;98973.75;;;9.59;100.00
69848;BME280;57143;55.940;37.496;2023-04-08T04:24:47;99123.72;;;9.45;100.00
69848;BME280;57143;55.940;37.496;2023-04-08T04:27:14;99267.06;;;8.95;100.00
69848;BME280;57143;55.940;37.496;2023-04-08T04:29:42;99297.34;;;9.35;100.00
69848;BME280;57143;55.940;37.496;2023-04-08T04:32:09;99334.44;;;9.77;100.00
69848;BME280;57143;55.940;37.496;2023-04-08T04:34:38;99345.59;;;10.36;100.00
69848;BME280;57143;55.940;37.496;2023-04-08T04:37:05;99384.59;;;10.11;100.00
69848;BME280;57143;55.940;37.496;2023-04-08T04:39:32;99339.94;;;10.38;100.00
69848;BME280;57143;55.940;37.496;2023-04-08T04:41:59;99250.47;;;10.74;100.00
69848;BME280;57143;55.940;37.496;2023-04-08T04:44:28;99269.69;;;10.55;100.00
69848;BME280;57143;55.940;37.496;2023-04-08T04:46:55;99224.84;;;10.04;100.00
69848;BME280;57143;55.940;37.496;2023-04-08T04:49:22;99192.22;;;9.99;100.00
69848;BME280;57143;55.940;37.496;2023-04-08T04:51:50;99166.81;;;10.00;100.00
69848;BME280;57143;55.940;37.496;2023-04-08T04:54:17;99130.91;;;10.05;100.00
69848;BME280;57143;55.940;37.496;2023-04-08T04:56:45;99110.25;;;10.28;100.00
69848;BME280;57143;55.940;37.496;2023-04-08T04:59:12;99126.69;;;10.57;100.00
69848;BME280;57143;55.940;37.496;2023-04-08T05:01:39;99149.31;;;10.62;100.00
69848;BME280;57143;55.940;37.496;2023-04-08T05:04:06;99176.03;;;10.77;100.00
69848;BME280;57143;55.940;37.496;2023-04-08T05:06:33;99151.06;;;10.98;100.00
69848;BME280;57143;55.940;37.496;2023-04-08T05:09:02;99108.16;;;11.29;100.00
69848;BME280;57143;55.940;37.496;2023-04-08T05:11:29;99240.69;;;11.67;100.00
69848;BME280;57143;55.940;37.496;2023-04-08T05:13:56;99622.69;;;12.14;100.00
69848;BME280;57143;55.940;37.496;2023-04-08T05:16:23;99795.06;;;12.18;99.46
69848;BME280;57143;55.940;37.496;2023-04-08T05:18:50;99964.34;;;11.94;99.50
69848;BME280;57143;55.940;37.496;2023-04-08T05:21:18;100114.72;;;12.13;98.14
69848;BME280;57143;55.940;37.496;2023-04-08T05:23:45;100206.78;;;11.83;98.71
69848;BME280;57143;55.940;37.496;2023-04-08T05:26:13;100213.50;;;11.61;99.59
69848;BME280;57143;55.940;37.496;2023-04-08T05:28:40;100287.75;;;12.76;96.46
69848;BME280;57143;55.940;37.496;2023-04-08T05:31:07;100330.34;;;12.51;95.87
69848;BME280;57143;55.940;37.496;2023-04-08T05:33:36;100358.34;;;12.45;96.37
69848;BME280;57143;55.940;37.496;2023-04-08T05:36:03;100389.66;;;12.67;96.39
69848;BME280;57143;55.940;37.496;2023-04-08T05:38:31;100433.44;;;12.39;96.75
69848;BME280;57143;55.940;37.496;2023-04-08T05:40:58;100430.53;;;12.28;97.84
69848;BME280;57143;55.940;37.496;2023-04-08T05:43:26;100469.44;;;12.35;99.31
69848;BME280;57143;55.940;37.496;2023-04-08T05:45:53;100518.34;;;12.61;96.43
69848;BME280;57143;55.940;37.496;2023-04-08T05:48:20;100553.06;;;12.72;94.92
69848;BME280;57143;55.940;37.496;2023-04-08T05:50:47;100557.66;;;13.11;93.07
69848;BME280;57143;55.940;37.496;2023-04-08T05:53:15;100556.19;;;13.02;94.00
69848;BME280;57143;55.940;37.496;2023-04-08T05:55:42;100567.72;;;13.67;91.34
69848;BME280;57143;55.940;37.496;2023-04-08T05:58:09;100557.66;;;13.68;88.72
69848;BME280;57143;55.940;37.496;2023-04-08T06:00:38;100580.84;;;13.26;87.82
69848;BME280;57143;55.940;37.496;2023-04-08T06:03:05;100577.31;;;13.76;88.98
69848;BME280;57143;55.940;37.496;2023-04-08T06:05:32;100589.06;;;13.70;88.21
69848;BME280;57143;55.940;37.496;2023-04-08T06:07:59;100598.66;;;13.86;87.52
69848;BME280;57143;55.940;37.496;2023-04-08T06:10:26;100603.06;;;13.17;89.78
69848;BME280;57143;55.940;37.496;2023-04-08T06:12:53;100613.31;;;13.28;89.54
69848;BME280;57143;55.940;37.496;2023-04-08T06:15:21;100614.69;;;13.56;90.19
69848;BME280;57143;55.940;37.496;2023-04-08T06:17:49;100608.25;;;13.38;89.80
69848;BME280;57143;55.940;37.496;2023-04-08T06:20:16;100623.16;;;13.35;91.20
69848;BME280;57143;55.940;37.496;2023-04-08T06:22:43;100623.31;;;13.47;90.94
69848;BME280;57143;55.940;37.496;2023-04-08T06:25:10;100623.75;;;13.44;89.95
69848;BME280;57143;55.940;37.496;2023-04-08T06:27:38;100620.25;;;13.81;88.56
69848;BME280;57143;55.940;37.496;2023-04-08T06:30:07;100634.59;;;13.57;89.00
69848;BME280;57143;55.940;37.496;2023-04-08T06:32:34;100642.75;;;13.63;89.99
69848;BME280;57143;55.940;37.496;2023-04-08T06:35:04;100638.22;;;13.95;87.92
69848;BME280;57143;55.940;37.496;2023-04-08T06:37:32;100647.25;;;13.96;89.43
69848;BME280;57143;55.940;37.496;2023-04-08T06:40:04;100643.06;;;13.23;92.21
69848;BME280;57143;55.940;37.496;2023-04-08T06:42:31;100659.53;;;13.54;92.41
69848;BME280;57143;55.940;37.496;2023-04-08T06:44:58;100665.22;;;13.39;92.43
69848;BME280;57143;55.940;37.496;2023-04-08T06:47:25;100671.34;;;13.28;94.28
69848;BME280;57143;55.940;37.496;2023-04-08T06:49:52;100664.94;;;13.67;92.76
69848;BME280;57143;55.940;37.496;2023-04-08T06:52:21;100648.09;;;14.40;88.70
69848;BME280;57143;55.940;37.496;2023-04-08T06:54:48;100640.88;;;14.52;85.06
69848;BME280;57143;55.940;37.496;2023-04-08T06:57:15;100617.31;;;14.89;83.52
69848;BME280;57143;55.940;37.496;2023-04-08T06:59:42;100618.06;;;14.71;83.27
69848;BME280;57143;55.940;37.496;2023-04-08T07:02:09;100604.09;;;14.86;83.55
69848;BME280;57143;55.940;37.496;2023-04-08T07:04:37;100607.41;;;14.63;82.68
69848;BME280;57143;55.940;37.496;2023-04-08T07:07:05;100597.25;;;14.77;85.41
69848;BME280;57143;55.940;37.496;2023-04-08T07:09:33;100583.88;;;14.93;82.26
69848;BME280;57143;55.940;37.496;2023-04-08T07:12:01;100585.19;;;15.09;81.21
69848;BME280;57143;55.940;37.496;2023-04-08T07:14:28;100571.28;;;14.92;82.42
69848;BME280;57143;55.940;37.496;2023-04-08T07:16:55;100554.75;;;14.87;80.99
69848;BME280;57143;55.940;37.496;2023-04-08T07:19:22;100557.19;;;14.95;82.98
69848;BME280;57143;55.940;37.496;2023-04-08T07:21:50;100548.41;;;15.12;82.29
69848;BME280;57143;55.940;37.496;2023-04-08T07:24:17;100547.22;;;14.58;84.18
69848;BME280;57143;55.940;37.496;2023-04-08T07:26:45;100537.09;;;14.65;84.83
69848;BME280;57143;55.940;37.496;2023-04-08T07:29:13;100525.94;;;14.91;82.61
69848;BME280;57143;55.940;37.496;2023-04-08T07:31:42;100532.69;;;14.09;84.95
69848;BME280;57143;55.940;37.496;2023-04-08T07:34:09;100516.78;;;14.61;84.76
69848;BME280;57143;55.940;37.496;2023-04-08T07:36:36;100515.81;;;14.74;84.16
69848;BME280;57143;55.940;37.496;2023-04-08T07:39:03;100511.38;;;14.24;83.91
69848;BME280;57143;55.940;37.496;2023-04-08T07:41:31;100521.88;;;13.96;86.19
69848;BME280;57143;55.940;37.496;2023-04-08T07:43:59;100493.72;;;14.57;83.57
69848;BME280;57143;55.940;37.496;2023-04-08T07:46:26;100493.47;;;15.01;80.68
69848;BME280;57143;55.940;37.496;2023-04-08T07:48:53;100494.34;;;15.20;78.64
69848;BME280;57143;55.940;37.496;2023-04-08T07:51:20;100498.88;;;14.16;81.18
69848;BME280;57143;55.940;37.496;2023-04-08T07:53:48;100502.78;;;13.96;85.48
69848;BME280;57143;55.940;37.496;2023-04-08T07:56:15;100504.56;;;14.08;84.22
69848;BME280;57143;55.940;37.496;2023-04-08T07:58:43;100494.69;;;13.82;85.64
69848;BME280;57143;55.940;37.496;2023-04-08T08:01:18;100492.25;;;14.06;85.10
69848;BME280;57143;55.940;37.496;2023-04-08T08:03:46;100492.16;;;14.43;81.88
69848;BME280;57143;55.940;37.496;2023-04-08T08:06:13;100497.00;;;14.41;82.25
69848;BME280;57143;55.940;37.496;2023-04-08T08:08:40;100490.38;;;14.00;82.32
69848;BME280;57143;55.940;37.496;2023-04-08T08:11:08;100468.09;;;13.78;79.96
69848;BME280;57143;55.940;37.496;2023-04-08T08:13:35;100494.63;;;13.96;82.14
69848;BME280;57143;55.940;37.496;2023-04-08T08:16:02;100492.50;;;13.98;82.54
69848;BME280;57143;55.940;37.496;2023-04-08T08:18:34;100491.00;;;14.02;83.18
69848;BME280;57143;55.940;37.496;2023-04-08T08:21:01;100493.47;;;13.78;83.07
69848;BME280;57143;55.940;37.496;2023-04-08T08:23:28;100479.97;;;13.90;82.66
69848;BME280;57143;55.940;37.496;2023-04-08T08:25:59;100489.00;;;13.90;86.17
69848;BME280;57143;55.940;37.496;2023-04-08T08:28:26;100476.56;;;14.01;84.80
69848;BME280;57143;55.940;37.496;2023-04-08T08:30:54;100475.38;;;14.15;83.79
69848;BME280;57143;55.940;37.496;2023-04-08T08:33:21;100471.00;;;14.14;79.03
69848;BME280;57143;55.940;37.496;2023-04-08T08:35:49;100473.09;;;14.12;80.20
69848;BME280;57143;55.940;37.496;2023-04-08T08:38:17;100474.22;;;14.05;79.69
69848;BME280;57143;55.940;37.496;2023-04-08T08:40:44;100473.22;;;13.68;79.81
69848;BME280;57143;55.940;37.496;2023-04-08T08:43:11;100480.44;;;13.49;78.59
69848;BME280;57143;55.940;37.496;2023-04-08T08:45:40;100459.41;;;13.19;78.69
69848;BME280;57143;55.940;37.496;2023-04-08T08:48:08;100482.19;;;13.37;79.71
69848;BME280;57143;55.940;37.496;2023-04-08T08:50:35;100489.41;;;12.99;84.55
69848;BME280;57143;55.940;37.496;2023-04-08T08:53:04;100485.25;;;12.77;86.55
69848;BME280;57143;55.940;37.496;2023-04-08T08:55:32;100491.75;;;12.76;87.61
69848;BME280;57143;55.940;37.496;2023-04-08T08:57:59;100493.47;;;12.51;89.83
69848;BME280;57143;55.940;37.496;2023-04-08T09:00:30;100487.41;;;12.49;92.22
69848;BME280;57143;55.940;37.496;2023-04-08T09:03:13;100472.75;;;12.56;92.56
69848;BME280;57143;55.940;37.496;2023-04-08T09:05:47;100474.38;;;12.70;90.34
69848;BME280;57143;55.940;37.496;2023-04-08T09:08:29;100488.03;;;12.57;90.80
69848;BME280;57143;55.940;37.496;2023-04-08T09:11:11;100472.75;;;12.43;91.55
69848;BME280;57143;55.940;37.496;2023-04-08T09:13:39;100477.56;;;12.41;92.70
69848;BME280;57143;55.940;37.496;2023-04-08T09:16:08;100457.50;;;12.36;92.21
69848;BME280;57143;55.940;37.496;2023-04-08T09:18:36;100461.69;;;12.32;92.02
69848;BME280;57143;55.940;37.496;2023-04-08T09:21:04;100444.75;;;12.36;93.37
69848;BME280;57143;55.940;37.496;2023-04-08T09:23:41;100430.78;;;12.20;93.25
69848;BME280;57143;55.940;37.496;2023-04-08T09:26:09;100458.34;;;12.30;92.33
69848;BME280;57143;55.940;37.496;2023-04-08T09:28:37;100455.38;;;12.64;90.97
69848;BME280;57143;55.940;37.496;2023-04-08T09:31:18;100446.41;;;12.50;86.43
69848;BME280;57143;55.940;37.496;2023-04-08T09:33:46;100446.78;;;12.67;85.46
69848;BME280;57143;55.940;37.496;2023-04-08T09:36:14;100450.38;;;12.61;84.55
69848;BME280;57143;55.940;37.496;2023-04-08T09:38:44;100462.53;;;12.26;86.69
69848;BME280;57143;55.940;37.496;2023-04-08T09:41:15;100451.25;;;12.35;86.39
69848;BME280;57143;55.940;37.496;2023-04-08T09:43:46;100453.94;;;12.48;85.14
69848;BME280;57143;55.940;37.496;2023-04-08T09:46:15;100447.22;;;12.64;85.36
69848;BME280;57143;55.940;37.496;2023-04-08T09:48:55;100410.22;;;12.43;84.09
69848;BME280;57143;55.940;37.496;2023-04-08T09:51:24;100441.56;;;12.59;85.43
69848;BME280;57143;55.940;37.496;2023-04-08T09:54:00;100446.59;;;12.62;86.70
69848;BME280;57143;55.940;37.496;2023-04-08T09:56:33;100440.97;;;12.50;87.81
69848;BME280;57143;55.940;37.496;2023-04-08T09:59:03;100434.88;;;12.68;87.40
69848;BME280;57143;55.940;37.496;2023-04-08T10:01:37;100441.59;;;12.39;87.49
69848;BME280;57143;55.940;37.496;2023-04-08T10:04:08;100445.41;;;12.32;85.29
69848;BME280;57143;55.940;37.496;2023-04-08T10:06:39;100441.81;;;12.51;85.77
69848;BME280;57143;55.940;37.496;2023-04-08T10:09:08;100438.69;;;12.47;87.08
69848;BME280;57143;55.940;37.496;2023-04-08T10:11:36;100431.56;;;12.40;89.46
69848;BME280;57143;55.940;37.496;2023-04-08T10:14:03;100434.03;;;12.61;89.72
69848;BME280;57143;55.940;37.496;2023-04-08T10:16:30;100428.63;;;12.48;89.32
69848;BME280;57143;55.940;37.496;2023-04-08T10:18:57;100425.25;;;12.59;89.26
69848;BME280;57143;55.940;37.496;2023-04-08T10:21:34;100423.78;;;12.56;89.73
69848;BME280;57143;55.940;37.496;2023-04-08T10:24:06;100407.72;;;12.48;88.85
69848;BME280;57143;55.940;37.496;2023-04-08T10:26:36;100416.94;;;12.47;86.92
69848;BME280;57143;55.940;37.496;2023-04-08T10:32:28;100404.22;;;12.28;86.96
69848;BME280;57143;55.940;37.496;2023-04-08T10:34:55;100411.94;;;12.18;83.24
69848;BME280;57143;55.940;37.496;2023-04-08T10:37:23;100418.22;;;12.19;82.88
69848;BME280;57143;55.940;37.496;2023-04-08T10:39:53;100414.44;;;12.07;84.63
69848;BME280;57143;55.940;37.496;2023-04-08T10:42:27;100413.19;;;12.16;85.85
69848;BME280;57143;55.940;37.496;2023-04-08T10:44:59;100418.00;;;12.14;86.17
69848;BME280;57143;55.940;37.496;2023-04-08T10:47:26;100417.59;;;12.10;86.80
69848;BME280;57143;55.940;37.496;2023-04-08T10:49:53;100400.03;;;12.00;88.57
69848;BME280;57143;55.940;37.496;2023-04-08T10:52:21;100400.88;;;11.87;88.73
69848;BME280;57143;55.940;37.496;2023-04-08T10:54:48;100389.38;;;11.98;89.11
69848;BME280;57143;55.940;37.496;2023-04-08T10:57:22;100397.50;;;12.24;88.50
69848;BME280;57143;55.940;37.496;2023-04-08T10:59:51;100404.00;;;12.10;87.93
69848;BME280;57143;55.940;37.496;2023-04-08T11:02:18;100383.72;;;12.06;87.29
69848;BME280;57143;55.940;37.496;2023-04-08T11:04:46;100401.28;;;12.10;88.67
69848;BME280;57143;55.940;37.496;2023-04-08T11:07:13;100392.75;;;11.94;88.59
69848;BME280;57143;55.940;37.496;2023-04-08T11:09:40;100375.78;;;12.05;90.79
69848;BME280;57143;55.940;37.496;2023-04-08T11:12:08;100382.09;;;11.92;90.90
69848;BME280;57143;55.940;37.496;2023-04-08T11:14:36;100372.03;;;11.93;90.30
69848;BME280;57143;55.940;37.496;2023-04-08T11:17:08;100371.41;;;12.10;89.31
69848;BME280;57143;55.940;37.496;2023-04-08T11:19:36;100370.97;;;12.20;88.50
69848;BME280;57143;55.940;37.496;2023-04-08T11:22:04;100377.00;;;12.22;89.48
69848;BME280;57143;55.940;37.496;2023-04-08T11:24:34;100370.50;;;12.36;89.67
69848;BME280;57143;55.940;37.496;2023-04-08T11:27:03;100362.56;;;12.47;88.95
69848;BME280;57143;55.940;37.496;2023-04-08T11:29:31;100360.41;;;12.62;87.22
69848;BME280;57143;55.940;37.496;2023-04-08T11:31:59;100272.31;;;12.13;87.38
69848;BME280;57143;55.940;37.496;2023-04-08T11:34:28;100353.69;;;12.65;88.28
69848;BME280;57143;55.940;37.496;2023-04-08T11:36:56;100357.03;;;12.67;88.94
69848;BME280;57143;55.940;37.496;2023-04-08T11:39:24;100348.47;;;12.70;90.38
69848;BME280;57143;55.940;37.496;2023-04-08T11:41:52;100319.16;;;12.65;90.41
69848;BME280;57143;55.940;37.496;2023-04-08T11:44:29;100350.16;;;12.64;90.14
69848;BME280;57143;55.940;37.496;2023-04-08T11:46:56;100339.09;;;12.53;90.03
69848;BME280;57143;55.940;37.496;2023-04-08T11:49:24;100335.56;;;12.52;87.99
69848;BME280;57143;55.940;37.496;2023-04-08T11:51:57;100343.88;;;12.64;86.79
69848;BME280;57143;55.940;37.496;2023-04-08T11:54:26;100320.63;;;12.61;84.61
69848;BME280;57143;55.940;37.496;2023-04-08T11:56:54;100308.47;;;12.70;83.06
69848;BME280;57143;55.940;37.496;2023-04-08T11:59:23;100314.09;;;12.75;82.60
69848;BME280;57143;55.940;37.496;2023-04-08T12:01:50;100332.03;;;12.90;82.28
69848;BME280;57143;55.940;37.496;2023-04-08T12:04:17;100330.41;;;12.82;84.05
69848;BME280;57143;55.940;37.496;2023-04-08T12:06:45;100323.28;;;12.81;83.68
69848;BME280;57143;55.940;37.496;2023-04-08T12:09:14;100326.00;;;12.81;82.52
69848;BME280;57143;55.940;37.496;2023-04-08T12:11:41;100316.19;;;12.73;81.69
69848;BME280;57143;55.940;37.496;2023-04-08T12:14:08;100328.47;;;12.89;81.28
69848;BME280;57143;55.940;37.496;2023-04-08T12:16:36;100313.19;;;12.88;81.28
69848;BME280;57143;55.940;37.496;2023-04-08T12:19:03;100334.72;;;12.96;81.08
69848;BME280;57143;55.940;37.496;2023-04-08T12:21:30;100327.16;;;12.98;80.27
69848;BME280;57143;55.940;37.496;2023-04-08T12:23:58;100322.16;;;12.95;80.51
69848;BME280;57143;55.940;37.496;2023-04-08T12:26:27;100293.63;;;12.73;80.61
69848;BME280;57143;55.940;37.496;2023-04-08T12:28:54;100317.38;;;12.91;81.92
69848;BME280;57143;55.940;37.496;2023-04-08T12:31:21;100321.84;;;12.78;81.77
69848;BME280;57143;55.940;37.496;2023-04-08T12:33:49;100305.22;;;12.93;81.29
69848;BME280;57143;55.940;37.496;2023-04-08T12:36:16;100307.53;;;12.90;83.19
69848;BME280;57143;55.940;37.496;2023-04-08T12:38:43;100304.03;;;12.82;82.88
69848;BME280;57143;55.940;37.496;2023-04-08T12:41:10;100302.50;;;12.93;82.76
69848;BME280;57143;55.940;37.496;2023-04-08T12:43:39;100311.88;;;13.04;82.48
69848;BME280;57143;55.940;37.496;2023-04-08T12:46:06;100278.69;;;12.89;82.39
69848;BME280;57143;55.940;37.496;2023-04-08T12:48:33;100305.84;;;12.95;81.12
69848;BME280;57143;55.940;37.496;2023-04-08T12:51:00;100309.22;;;12.91;81.04
69848;BME280;57143;55.940;37.496;2023-04-08T12:53:27;100299.56;;;12.95;81.42